sensor_id;sensor_type;location;lat;lon;timestamp;pressure;altitude;pressure_sealevel;temperature;humidity
9277;BME280;4676;42.678;23.244;2024-03-06T00:02:08;93826.81;;;5.17;100.00
9277;BME280;4676;42.678;23.244;2024-03-06T00:04:35;93809.63;;;5.00;100.00
9277;BME280;4676;42.678;23.244;2024-03-06T00:07:01;93829.69;;;5.02;100.00
9277;BME280;4676;42.678;23.244;2024-03-06T00:09:28;93829.84;;;4.96;100.00
9277;BME280;4676;42.678;23.244;2024-03-06T00:11:55;93825.94;;;4.83;100.00
9277;BME280;4676;42.678;23.244;2024-03-06T00:14:22;93843.25;;;4.93;100.00
9277;BME280;4676;42.678;23.244;2024-03-06T00:16:50;93839.31;;;4.83;100.00
9277;BME280;4676;42.678;23.244;2024-03-06T00:19:18;93842.88;;;4.73;100.00
9277;BME280;4676;42.678;23.244;2024-03-06T00:21:45;93837.28;;;4.62;100.00
9277;BME280;4676;42.678;23.244;2024-03-06T00:24:12;93827.13;;;4.67;100.00
9277;BME280;4676;42.678;23.244;2024-03-06T00:26:39;93839.75;;;4.64;100.00
9277;BME280;4676;42.678;23.244;2024-03-06T00:29:06;93842.34;;;4.59;100.00
9277;BME280;4676;42.678;23.244;2024-03-06T00:31:33;93831.66;;;4.51;100.00
9277;BME280;4676;42.678;23.244;2024-03-06T00:33:59;93833.31;;;4.50;100.00
9277;BME280;4676;42.678;23.244;2024-03-06T00:36:28;93829.13;;;4.52;100.00
9277;BME280;4676;42.678;23.244;2024-03-06T00:38:54;93829.81;;;4.59;100.00
9277;BME280;4676;42.678;23.244;2024-03-06T00:41:21;93826.53;;;4.56;100.00
9277;BME280;4676;42.678;23.244;2024-03-06T00:43:48;93826.63;;;4.51;100.00
9277;BME280;4676;42.678;23.244;2024-03-06T00:46:15;93829.28;;;4.43;100.00
9277;BME280;4676;42.678;23.244;2024-03-06T00:48:42;93832.69;;;4.41;100.00
9277;BME280;4676;42.678;23.244;2024-03-06T00:51:09;93827.59;;;4.45;100.00
9277;BME280;4676;42.678;23.244;2024-03-06T00:53:37;93828.81;;;4.28;100.00
9277;BME280;4676;42.678;23.244;2024-03-06T00:56:04;93835.41;;;4.32;100.00
9277;BME280;4676;42.678;23.244;2024-03-06T00:58:31;93831.53;;;4.17;100.00
9277;BME280;4676;42.678;23.244;2024-03-06T01:00:58;93837.66;;;4.04;100.00
9277;BME280;4676;42.678;23.244;2024-03-06T01:03:25;93833.47;;;4.05;100.00
9277;BME280;4676;42.678;23.244;2024-03-06T01:05:52;93834.22;;;4.08;100.00
9277;BME280;4676;42.678;23.244;2024-03-06T01:08:18;93840.94;;;4.06;100.00
9277;BME280;4676;42.678;23.244;2024-03-06T01:10:47;93832.44;;;4.13;100.00
9277;BME280;4676;42.678;23.244;2024-03-06T01:13:13;93835.00;;;4.12;100.00
9277;BME280;4676;42.678;23.244;2024-03-06T01:15:40;93831.59;;;4.14;100.00
9277;BME280;4676;42.678;23.244;2024-03-06T01:18:07;93832.34;;;4.18;100.00
9277;BME280;4676;42.678;23.244;2024-03-06T01:20:34;93823.09;;;4.21;100.00
9277;BME280;4676;42.678;23.244;2024-03-06T01:23:01;93822.97;;;4.27;100.00
9277;BME280;4676;42.678;23.244;2024-03-06T01:25:28;93812.94;;;4.26;100.00
9277;BME280;4676;42.678;23.244;2024-03-06T01:27:56;93808.81;;;4.23;100.00
9277;BME280;4676;42.678;23.244;2024-03-06T01:30:23;93813.00;;;4.24;100.00
9277;BME280;4676;42.678;23.244;2024-03-06T01:32:49;93823.72;;;4.31;100.00
9277;BME280;4676;42.678;23.244;2024-03-06T01:35:16;93814.81;;;4.18;100.00
9277;BME280;4676;42.678;23.244;2024-03-06T01:37:43;93809.03;;;4.13;100.00
9277;BME280;4676;42.678;23.244;2024-03-06T01:40:10;93811.50;;;4.16;100.00
9277;BME280;4676;42.678;23.244;2024-03-06T01:42:37;93806.66;;;4.07;100.00
9277;BME280;4676;42.678;23.244;2024-03-06T01:45:07;93810.06;;;4.04;100.00
9277;BME280;4676;42.678;23.244;2024-03-06T01:47:34;93810.72;;;4.12;100.00
9277;BME280;4676;42.678;23.244;2024-03-06T01:50:10;93814.06;;;4.13;100.00
9277;BME280;4676;42.678;23.244;2024-03-06T01:52:38;93820.59;;;4.21;100.00
9277;BME280;4676;42.678;23.244;2024-03-06T01:55:07;93822.50;;;4.09;100.00
9277;BME280;4676;42.678;23.244;2024-03-06T01:57:34;93789.59;;;3.82;100.00
9277;BME280;4676;42.678;23.244;2024-03-06T02:00:03;93816.88;;;3.97;100.00
9277;BME280;4676;42.678;23.244;2024-03-06T02:02:31;93821.03;;;3.98;100.00
9277;BME280;4676;42.678;23.244;2024-03-06T02:04:59;93827.50;;;4.09;100.00
9277;BME280;4676;42.678;23.244;2024-03-06T02:07:25;93834.25;;;4.05;100.00
9277;BME280;4676;42.678;23.244;2024-03-06T02:09:52;93832.34;;;4.18;100.00
9277;BME280;4676;42.678;23.244;2024-03-06T02:12:19;93833.19;;;4.18;100.00
9277;BME280;4676;42.678;23.244;2024-03-06T02:14:46;93831.44;;;4.22;100.00
9277;BME280;4676;42.678;23.244;2024-03-06T02:17:12;93840.72;;;4.18;100.00
9277;BME280;4676;42.678;23.244;2024-03-06T02:19:41;93839.84;;;4.19;100.00
9277;BME280;4676;42.678;23.244;2024-03-06T02:22:10;93849.09;;;4.17;100.00
9277;BME280;4676;42.678;23.244;2024-03-06T02:24:42;93851.94;;;4.00;100.00
9277;BME280;4676;42.678;23.244;2024-03-06T02:27:09;93824.72;;;3.81;100.00
9277;BME280;4676;42.678;23.244;2024-03-06T02:29:35;93854.50;;;3.97;100.00
9277;BME280;4676;42.678;23.244;2024-03-06T02:32:03;93836.97;;;3.96;100.00
9277;BME280;4676;42.678;23.244;2024-03-06T02:34:30;93827.97;;;3.86;100.00
9277;BME280;4676;42.678;23.244;2024-03-06T02:36:57;93856.56;;;4.19;100.00
9277;BME280;4676;42.678;23.244;2024-03-06T02:39:25;93847.34;;;4.19;100.00
9277;BME280;4676;42.678;23.244;2024-03-06T02:41:52;93857.31;;;4.22;100.00
9277;BME280;4676;42.678;23.244;2024-03-06T02:44:18;93847.53;;;4.12;100.00
9277;BME280;4676;42.678;23.244;2024-03-06T02:46:47;93854.13;;;4.16;100.00
9277;BME280;4676;42.678;23.244;2024-03-06T02:49:14;93844.34;;;4.02;100.00
9277;BME280;4676;42.678;23.244;2024-03-06T02:51:41;93853.47;;;4.08;100.00
9277;BME280;4676;42.678;23.244;2024-03-06T02:54:07;93822.19;;;3.82;100.00
9277;BME280;4676;42.678;23.244;2024-03-06T02:56:35;93847.06;;;3.93;100.00
9277;BME280;4676;42.678;23.244;2024-03-06T02:59:02;93853.00;;;3.87;100.00
9277;BME280;4676;42.678;23.244;2024-03-06T03:01:29;93848.84;;;3.86;100.00
9277;BME280;4676;42.678;23.244;2024-03-06T03:03:56;93853.94;;;3.83;100.00
9277;BME280;4676;42.678;23.244;2024-03-06T03:06:23;93858.78;;;3.91;100.00
9277;BME280;4676;42.678;23.244;2024-03-06T03:08:50;93867.59;;;4.10;100.00
9277;BME280;4676;42.678;23.244;2024-03-06T03:11:17;93860.78;;;4.17;100.00
9277;BME280;4676;42.678;23.244;2024-03-06T03:13:45;93834.78;;;3.79;100.00
9277;BME280;4676;42.678;23.244;2024-03-06T03:16:16;93852.91;;;3.93;100.00
9277;BME280;4676;42.678;23.244;2024-03-06T03:18:43;93860.69;;;3.77;100.00
9277;BME280;4676;42.678;23.244;2024-03-06T03:21:10;93864.91;;;3.76;100.00
9277;BME280;4676;42.678;23.244;2024-03-06T03:23:37;93864.34;;;3.61;100.00
9277;BME280;4676;42.678;23.244;2024-03-06T03:26:04;93869.28;;;3.65;100.00
9277;BME280;4676;42.678;23.244;2024-03-06T03:28:31;93867.69;;;3.61;100.00
9277;BME280;4676;42.678;23.244;2024-03-06T03:30:59;93876.75;;;3.67;100.00
9277;BME280;4676;42.678;23.244;2024-03-06T03:33:26;93862.63;;;3.63;100.00
9277;BME280;4676;42.678;23.244;2024-03-06T03:35:53;93861.78;;;3.64;100.00
9277;BME280;4676;42.678;23.244;2024-03-06T03:38:20;93869.09;;;3.74;100.00
9277;BME280;4676;42.678;23.244;2024-03-06T03:40:46;93870.06;;;3.67;100.00
9277;BME280;4676;42.678;23.244;2024-03-06T03:43:13;93871.63;;;3.74;100.00
9277;BME280;4676;42.678;23.244;2024-03-06T03:45:40;93862.63;;;3.63;100.00
9277;BME280;4676;42.678;23.244;2024-03-06T03:48:08;93864.22;;;3.68;100.00
9277;BME280;4676;42.678;23.244;2024-03-06T03:50:35;93868.31;;;3.72;100.00
9277;BME280;4676;42.678;23.244;2024-03-06T03:53:01;93864.16;;;3.73;100.00
9277;BME280;4676;42.678;23.244;2024-03-06T03:55:29;93860.22;;;3.58;100.00
9277;BME280;4676;42.678;23.244;2024-03-06T03:57:56;93879.19;;;3.73;100.00
9277;BME280;4676;42.678;23.244;2024-03-06T04:00:23;93869.16;;;3.73;100.00
9277;BME280;4676;42.678;23.244;2024-03-06T04:02:50;93882.22;;;3.88;100.00
9277;BME280;4676;42.678;23.244;2024-03-06T04:05:18;93874.19;;;3.70;100.00
9277;BME280;4676;42.678;23.244;2024-03-06T04:07:44;93886.69;;;3.73;100.00
9277;BME280;4676;42.678;23.244;2024-03-06T04:10:11;93894.22;;;3.73;100.00
9277;BME280;4676;42.678;23.244;2024-03-06T04:12:38;93886.63;;;3.76;100.00
9277;BME280;4676;42.678;23.244;2024-03-06T04:15:06;93886.72;;;3.70;100.00
9277;BME280;4676;42.678;23.244;2024-03-06T04:17:34;93889.28;;;3.67;100.00
9277;BME280;4676;42.678;23.244;2024-03-06T04:20:01;93894.41;;;3.62;100.00
9277;BME280;4676;42.678;23.244;2024-03-06T04:22:30;93893.53;;;3.63;100.00
9277;BME280;4676;42.678;23.244;2024-03-06T04:24:57;93901.94;;;3.59;100.00
9277;BME280;4676;42.678;23.244;2024-03-06T04:27:25;93892.78;;;3.58;100.00
9277;BME280;4676;42.678;23.244;2024-03-06T04:29:52;93911.06;;;3.63;100.00
9277;BME280;4676;42.678;23.244;2024-03-06T04:32:19;93906.91;;;3.62;100.00
9277;BME280;4676;42.678;23.244;2024-03-06T04:34:45;93912.41;;;3.82;100.00
9277;BME280;4676;42.678;23.244;2024-03-06T04:37:12;93887.69;;;3.63;100.00
9277;BME280;4676;42.678;23.244;2024-03-06T04:39:41;93910.94;;;3.71;100.00
9277;BME280;4676;42.678;23.244;2024-03-06T04:42:07;93891.13;;;3.56;100.00
9277;BME280;4676;42.678;23.244;2024-03-06T04:44:36;93897.22;;;3.42;100.00
9277;BME280;4676;42.678;23.244;2024-03-06T04:47:03;93884.91;;;3.29;100.00
9277;BME280;4676;42.678;23.244;2024-03-06T04:49:33;93921.19;;;3.57;100.00
9277;BME280;4676;42.678;23.244;2024-03-06T04:52:00;93922.81;;;3.61;100.00
9277;BME280;4676;42.678;23.244;2024-03-06T04:54:28;93926.19;;;3.59;100.00
9277;BME280;4676;42.678;23.244;2024-03-06T04:56:56;93925.31;;;3.61;100.00
9277;BME280;4676;42.678;23.244;2024-03-06T04:59:23;93907.94;;;3.50;100.00
9277;BME280;4676;42.678;23.244;2024-03-06T05:01:50;93907.72;;;3.63;100.00
9277;BME280;4676;42.678;23.244;2024-03-06T05:04:17;93931.09;;;3.65;100.00
9277;BME280;4676;42.678;23.244;2024-03-06T05:06:44;93925.25;;;3.64;100.00
9277;BME280;4676;42.678;23.244;2024-03-06T05:09:10;93930.38;;;3.58;100.00
9277;BME280;4676;42.678;23.244;2024-03-06T05:11:38;93922.63;;;3.70;100.00
9277;BME280;4676;42.678;23.244;2024-03-06T05:14:06;93928.47;;;3.72;100.00
9277;BME280;4676;42.678;23.244;2024-03-06T05:16:33;93932.41;;;3.87;100.00
9277;BME280;4676;42.678;23.244;2024-03-06T05:19:00;93931.44;;;3.92;100.00
9277;BME280;4676;42.678;23.244;2024-03-06T05:21:26;93930.63;;;3.92;100.00
9277;BME280;4676;42.678;23.244;2024-03-06T05:23:53;93934.59;;;4.03;100.00
9277;BME280;4676;42.678;23.244;2024-03-06T05:26:20;93930.31;;;4.09;100.00
9277;BME280;4676;42.678;23.244;2024-03-06T05:28:47;93931.72;;;4.23;100.00
9277;BME280;4676;42.678;23.244;2024-03-06T05:31:19;93947.53;;;4.27;100.00
9277;BME280;4676;42.678;23.244;2024-03-06T05:33:47;93941.53;;;4.34;100.00
9277;BME280;4676;42.678;23.244;2024-03-06T05:36:15;93938.06;;;4.41;100.00
9277;BME280;4676;42.678;23.244;2024-03-06T05:38:42;93939.66;;;4.46;100.00
9277;BME280;4676;42.678;23.244;2024-03-06T05:41:09;93946.13;;;4.57;100.00
9277;BME280;4676;42.678;23.244;2024-03-06T05:43:36;93943.59;;;4.58;100.00
9277;BME280;4676;42.678;23.244;2024-03-06T05:46:03;93921.91;;;4.56;100.00
9277;BME280;4676;42.678;23.244;2024-03-06T05:48:31;93944.88;;;4.77;100.00
9277;BME280;4676;42.678;23.244;2024-03-06T05:50:58;93937.16;;;4.86;100.00
9277;BME280;4676;42.678;23.244;2024-03-06T05:53:25;93951.56;;;5.17;100.00
9277;BME280;4676;42.678;23.244;2024-03-06T05:55:52;93951.75;;;5.09;100.00
9277;BME280;4676;42.678;23.244;2024-03-06T05:58:19;93954.28;;;5.08;100.00
9277;BME280;4676;42.678;23.244;2024-03-06T06:00:46;93878.22;;;4.64;100.00
9277;BME280;4676;42.678;23.244;2024-03-06T06:03:13;93961.66;;;5.15;100.00
9277;BME280;4676;42.678;23.244;2024-03-06T06:05:41;93945.69;;;5.18;100.00
9277;BME280;4676;42.678;23.244;2024-03-06T06:08:08;93963.53;;;5.44;100.00
9277;BME280;4676;42.678;23.244;2024-03-06T06:10:35;93971.75;;;5.50;100.00
9277;BME280;4676;42.678;23.244;2024-03-06T06:13:02;93971.53;;;5.60;100.00
9277;BME280;4676;42.678;23.244;2024-03-06T06:15:30;93943.41;;;5.44;100.00
9277;BME280;4676;42.678;23.244;2024-03-06T06:17:57;93978.72;;;5.75;100.00
9277;BME280;4676;42.678;23.244;2024-03-06T06:20:24;93973.03;;;5.67;100.00
9277;BME280;4676;42.678;23.244;2024-03-06T06:22:52;93886.38;;;5.11;100.00
9277;BME280;4676;42.678;23.244;2024-03-06T06:25:19;93977.97;;;5.71;100.00
9277;BME280;4676;42.678;23.244;2024-03-06T06:27:46;93972.00;;;5.75;100.00
9277;BME280;4676;42.678;23.244;2024-03-06T06:30:14;93966.22;;;5.72;100.00
9277;BME280;4676;42.678;23.244;2024-03-06T06:32:41;93970.03;;;5.88;100.00
9277;BME280;4676;42.678;23.244;2024-03-06T06:35:09;93959.47;;;5.74;100.00
9277;BME280;4676;42.678;23.244;2024-03-06T06:37:40;93950.38;;;5.68;100.00
9277;BME280;4676;42.678;23.244;2024-03-06T06:40:09;93970.34;;;5.74;100.00
9277;BME280;4676;42.678;23.244;2024-03-06T06:42:37;93940.06;;;5.45;100.00
9277;BME280;4676;42.678;23.244;2024-03-06T06:45:05;93964.47;;;5.75;100.00
9277;BME280;4676;42.678;23.244;2024-03-06T06:47:32;93963.31;;;5.90;100.00
9277;BME280;4676;42.678;23.244;2024-03-06T06:49:59;93962.97;;;6.03;100.00
9277;BME280;4676;42.678;23.244;2024-03-06T06:52:26;93951.88;;;6.11;100.00
9277;BME280;4676;42.678;23.244;2024-03-06T06:54:54;93977.72;;;6.17;100.00
9277;BME280;4676;42.678;23.244;2024-03-06T06:57:22;93976.84;;;6.18;100.00
9277;BME280;4676;42.678;23.244;2024-03-06T06:59:49;93976.22;;;6.10;100.00
9277;BME280;4676;42.678;23.244;2024-03-06T07:02:15;93974.50;;;6.12;100.00
9277;BME280;4676;42.678;23.244;2024-03-06T07:04:44;93982.03;;;6.12;100.00
9277;BME280;4676;42.678;23.244;2024-03-06T07:07:11;93982.22;;;6.05;100.00
9277;BME280;4676;42.678;23.244;2024-03-06T07:09:39;93981.91;;;6.17;100.00
9277;BME280;4676;42.678;23.244;2024-03-06T07:12:06;93987.53;;;6.26;100.00
9277;BME280;4676;42.678;23.244;2024-03-06T07:14:34;93978.75;;;6.41;100.00
9277;BME280;4676;42.678;23.244;2024-03-06T07:17:01;93973.22;;;6.61;100.00
9277;BME280;4676;42.678;23.244;2024-03-06T07:19:28;93977.53;;;6.56;100.00
9277;BME280;4676;42.678;23.244;2024-03-06T07:21:55;93976.47;;;6.64;100.00
9277;BME280;4676;42.678;23.244;2024-03-06T07:24:22;93977.03;;;6.75;100.00
9277;BME280;4676;42.678;23.244;2024-03-06T07:26:48;93983.28;;;6.91;100.00
9277;BME280;4676;42.678;23.244;2024-03-06T07:29:15;93973.50;;;7.10;100.00
9277;BME280;4676;42.678;23.244;2024-03-06T07:31:43;93980.38;;;7.05;100.00
9277;BME280;4676;42.678;23.244;2024-03-06T07:34:10;93984.81;;;7.25;100.00
9277;BME280;4676;42.678;23.244;2024-03-06T07:36:37;93980.19;;;7.39;100.00
9277;BME280;4676;42.678;23.244;2024-03-06T07:39:04;93975.41;;;7.31;100.00
9277;BME280;4676;42.678;23.244;2024-03-06T07:41:33;93965.00;;;7.14;100.00
9277;BME280;4676;42.678;23.244;2024-03-06T07:44:00;93972.59;;;7.40;100.00
9277;BME280;4676;42.678;23.244;2024-03-06T07:46:28;93968.53;;;7.36;100.00
9277;BME280;4676;42.678;23.244;2024-03-06T07:48:56;93974.03;;;7.49;100.00
9277;BME280;4676;42.678;23.244;2024-03-06T07:51:23;93972.81;;;7.61;100.00
9277;BME280;4676;42.678;23.244;2024-03-06T07:53:49;93975.19;;;7.67;100.00
9277;BME280;4676;42.678;23.244;2024-03-06T07:56:20;93955.00;;;7.67;100.00
9277;BME280;4676;42.678;23.244;2024-03-06T07:58:47;93971.41;;;7.78;100.00
9277;BME280;4676;42.678;23.244;2024-03-06T08:01:13;93973.50;;;7.92;100.00
9277;BME280;4676;42.678;23.244;2024-03-06T08:03:40;93982.47;;;7.74;100.00
9277;BME280;4676;42.678;23.244;2024-03-06T08:06:09;93987.38;;;7.79;100.00
9277;BME280;4676;42.678;23.244;2024-03-06T08:08:36;93983.41;;;7.72;100.00
9277;BME280;4676;42.678;23.244;2024-03-06T08:11:03;93982.13;;;7.85;100.00
9277;BME280;4676;42.678;23.244;2024-03-06T08:13:30;93987.06;;;7.89;100.00
9277;BME280;4676;42.678;23.244;2024-03-06T08:15:56;93991.00;;;7.98;100.00
9277;BME280;4676;42.678;23.244;2024-03-06T08:18:23;93989.38;;;7.95;100.00
9277;BME280;4676;42.678;23.244;2024-03-06T08:20:50;93994.50;;;7.94;100.00
9277;BME280;4676;42.678;23.244;2024-03-06T08:23:19;93999.44;;;7.97;100.00
9277;BME280;4676;42.678;23.244;2024-03-06T08:25:46;93989.94;;;8.05;100.00
9277;BME280;4676;42.678;23.244;2024-03-06T08:28:13;93992.97;;;8.15;100.00
9277;BME280;4676;42.678;23.244;2024-03-06T08:30:40;93989.34;;;8.23;100.00
9277;BME280;4676;42.678;23.244;2024-03-06T08:33:06;93991.47;;;8.35;100.00
9277;BME280;4676;42.678;23.244;2024-03-06T08:35:33;93981.94;;;8.43;100.00
9277;BME280;4676;42.678;23.244;2024-03-06T08:38:00;93987.00;;;8.43;100.00
9277;BME280;4676;42.678;23.244;2024-03-06T08:40:28;93984.84;;;8.58;100.00
9277;BME280;4676;42.678;23.244;2024-03-06T08:42:55;93983.63;;;8.68;100.00
9277;BME280;4676;42.678;23.244;2024-03-06T08:45:22;93981.00;;;8.71;100.00
9277;BME280;4676;42.678;23.244;2024-03-06T08:47:49;93987.78;;;8.93;100.00
9277;BME280;4676;42.678;23.244;2024-03-06T08:50:19;93992.66;;;8.98;100.00
9277;BME280;4676;42.678;23.244;2024-03-06T08:52:46;93969.25;;;8.70;100.00
9277;BME280;4676;42.678;23.244;2024-03-06T08:55:13;93969.69;;;8.81;100.00
9277;BME280;4676;42.678;23.244;2024-03-06T08:57:41;93992.13;;;9.13;100.00
9277;BME280;4676;42.678;23.244;2024-03-06T09:00:09;93987.28;;;9.30;100.00
9277;BME280;4676;42.678;23.244;2024-03-06T09:02:37;93986.22;;;9.36;100.00
9277;BME280;4676;42.678;23.244;2024-03-06T09:05:06;93995.44;;;9.60;100.00
9277;BME280;4676;42.678;23.244;2024-03-06T09:07:35;93997.25;;;9.57;100.00
9277;BME280;4676;42.678;23.244;2024-03-06T09:10:04;93995.75;;;9.74;100.00
9277;BME280;4676;42.678;23.244;2024-03-06T09:12:32;93992.09;;;9.60;100.00
9277;BME280;4676;42.678;23.244;2024-03-06T09:15:00;93993.81;;;9.58;100.00
9277;BME280;4676;42.678;23.244;2024-03-06T09:17:27;93985.38;;;9.59;100.00
9277;BME280;4676;42.678;23.244;2024-03-06T09:19:54;93984.72;;;9.75;100.00
9277;BME280;4676;42.678;23.244;2024-03-06T09:22:21;93990.28;;;10.05;100.00
9277;BME280;4676;42.678;23.244;2024-03-06T09:24:48;93993.69;;;10.04;100.00
9277;BME280;4676;42.678;23.244;2024-03-06T09:27:15;93982.88;;;10.22;100.00
9277;BME280;4676;42.678;23.244;2024-03-06T09:29:42;93987.81;;;10.25;100.00
9277;BME280;4676;42.678;23.244;2024-03-06T09:32:11;93980.09;;;10.48;100.00
9277;BME280;4676;42.678;23.244;2024-03-06T09:34:41;93979.47;;;10.64;100.00
9277;BME280;4676;42.678;23.244;2024-03-06T09:37:08;93980.84;;;10.71;100.00
9277;BME280;4676;42.678;23.244;2024-03-06T09:39:35;93982.75;;;10.66;100.00
9277;BME280;4676;42.678;23.244;2024-03-06T09:42:02;93988.31;;;10.74;100.00
9277;BME280;4676;42.678;23.244;2024-03-06T09:44:29;93984.25;;;10.70;100.00
9277;BME280;4676;42.678;23.244;2024-03-06T09:46:59;93984.09;;;10.54;100.00
9277;BME280;4676;42.678;23.244;2024-03-06T09:49:31;93980.56;;;10.58;100.00
9277;BME280;4676;42.678;23.244;2024-03-06T09:51:58;93980.94;;;10.69;100.00
9277;BME280;4676;42.678;23.244;2024-03-06T09:54:26;93982.19;;;10.79;100.00
9277;BME280;4676;42.678;23.244;2024-03-06T09:56:53;93975.00;;;10.89;100.00
9277;BME280;4676;42.678;23.244;2024-03-06T09:59:22;93969.09;;;10.88;100.00
9277;BME280;4676;42.678;23.244;2024-03-06T10:01:53;93970.63;;;10.92;100.00
9277;BME280;4676;42.678;23.244;2024-03-06T10:04:20;93975.44;;;10.78;100.00
9277;BME280;4676;42.678;23.244;2024-03-06T10:06:49;93967.56;;;10.84;98.21
9277;BME280;4676;42.678;23.244;2024-03-06T10:09:17;93971.06;;;10.82;97.26
9277;BME280;4676;42.678;23.244;2024-03-06T10:11:44;93938.41;;;10.76;99.44
9277;BME280;4676;42.678;23.244;2024-03-06T10:14:12;93952.75;;;11.14;99.45
9277;BME280;4676;42.678;23.244;2024-03-06T10:16:52;93956.53;;;11.43;96.33
9277;BME280;4676;42.678;23.244;2024-03-06T10:19:19;93954.31;;;11.73;97.22
9277;BME280;4676;42.678;23.244;2024-03-06T10:21:47;93952.97;;;11.83;90.55
9277;BME280;4676;42.678;23.244;2024-03-06T10:24:18;93942.56;;;11.89;84.82
9277;BME280;4676;42.678;23.244;2024-03-06T10:26:46;93947.34;;;12.12;82.51
9277;BME280;4676;42.678;23.244;2024-03-06T10:29:17;93927.34;;;12.23;82.46
9277;BME280;4676;42.678;23.244;2024-03-06T10:31:51;93948.16;;;12.47;81.45
9277;BME280;4676;42.678;23.244;2024-03-06T10:34:18;93930.16;;;12.34;72.04
9277;BME280;4676;42.678;23.244;2024-03-06T10:36:45;93933.09;;;12.27;76.27
9277;BME280;4676;42.678;23.244;2024-03-06T10:39:12;93937.84;;;12.33;71.34
9277;BME280;4676;42.678;23.244;2024-03-06T10:41:43;93911.63;;;12.32;71.76
9277;BME280;4676;42.678;23.244;2024-03-06T10:44:12;93937.47;;;12.58;69.65
9277;BME280;4676;42.678;23.244;2024-03-06T10:46:43;93919.84;;;12.37;70.86
9277;BME280;4676;42.678;23.244;2024-03-06T10:49:11;93924.97;;;12.53;73.89
9277;BME280;4676;42.678;23.244;2024-03-06T10:51:40;93926.47;;;12.57;70.52
9277;BME280;4676;42.678;23.244;2024-03-06T10:54:09;93926.09;;;12.65;69.05
9277;BME280;4676;42.678;23.244;2024-03-06T10:56:38;93916.03;;;12.79;69.18
9277;BME280;4676;42.678;23.244;2024-03-06T10:59:10;93917.03;;;12.92;67.19
9277;BME280;4676;42.678;23.244;2024-03-06T11:01:39;93913.28;;;12.99;67.58
9277;BME280;4676;42.678;23.244;2024-03-06T11:04:06;93902.28;;;12.98;68.67
9277;BME280;4676;42.678;23.244;2024-03-06T11:06:33;93907.13;;;12.87;66.71
9277;BME280;4676;42.678;23.244;2024-03-06T11:09:00;93901.63;;;12.95;64.14
9277;BME280;4676;42.678;23.244;2024-03-06T11:11:31;93890.22;;;12.86;63.77
9277;BME280;4676;42.678;23.244;2024-03-06T11:14:00;93895.13;;;12.89;63.63
9277;BME280;4676;42.678;23.244;2024-03-06T11:16:29;93890.47;;;12.97;60.41
9277;BME280;4676;42.678;23.244;2024-03-06T11:19:05;93877.94;;;12.94;60.69
9277;BME280;4676;42.678;23.244;2024-03-06T11:21:34;93886.34;;;13.12;60.90
9277;BME280;4676;42.678;23.244;2024-03-06T11:24:20;93873.81;;;12.92;61.28
9277;BME280;4676;42.678;23.244;2024-03-06T11:26:55;93856.16;;;12.73;62.21
9277;BME280;4676;42.678;23.244;2024-03-06T11:29:24;93870.50;;;12.74;63.30
9277;BME280;4676;42.678;23.244;2024-03-06T11:32:02;93866.00;;;12.95;63.54
9277;BME280;4676;42.678;23.244;2024-03-06T11:34:29;93859.06;;;13.14;60.61
9277;BME280;4676;42.678;23.244;2024-03-06T11:36:57;93843.16;;;13.11;58.37
9277;BME280;4676;42.678;23.244;2024-03-06T11:39:28;93855.13;;;13.40;58.11
9277;BME280;4676;42.678;23.244;2024-03-06T11:41:55;93856.88;;;13.69;60.74
9277;BME280;4676;42.678;23.244;2024-03-06T11:44:22;93854.34;;;13.99;62.43
9277;BME280;4676;42.678;23.244;2024-03-06T11:46:57;93854.13;;;14.18;56.82
9277;BME280;4676;42.678;23.244;2024-03-06T11:49:26;93844.38;;;14.24;60.07
9277;BME280;4676;42.678;23.244;2024-03-06T11:51:55;93851.72;;;14.44;60.25
9277;BME280;4676;42.678;23.244;2024-03-06T11:54:23;93845.81;;;14.58;56.09
9277;BME280;4676;42.678;23.244;2024-03-06T11:56:52;93838.53;;;14.52;55.38
9277;BME280;4676;42.678;23.244;2024-03-06T11:59:21;93838.06;;;14.45;56.43
9277;BME280;4676;42.678;23.244;2024-03-06T12:01:48;93838.72;;;14.49;56.96
9277;BME280;4676;42.678;23.244;2024-03-06T12:04:15;93833.69;;;14.76;56.37
9277;BME280;4676;42.678;23.244;2024-03-06T12:06:43;93836.16;;;14.91;55.98
9277;BME280;4676;42.678;23.244;2024-03-06T12:09:10;93829.84;;;14.83;51.59
9277;BME280;4676;42.678;23.244;2024-03-06T12:11:40;93828.84;;;14.71;52.57
9277;BME280;4676;42.678;23.244;2024-03-06T12:14:13;93832.78;;;14.34;50.32
9277;BME280;4676;42.678;23.244;2024-03-06T12:16:39;93833.88;;;14.15;49.21
9277;BME280;4676;42.678;23.244;2024-03-06T12:19:06;93821.44;;;13.80;48.98
9277;BME280;4676;42.678;23.244;2024-03-06T12:21:34;93831.38;;;13.85;50.32
9277;BME280;4676;42.678;23.244;2024-03-06T12:24:05;93826.56;;;13.94;49.40
9277;BME280;4676;42.678;23.244;2024-03-06T12:26:32;93825.56;;;13.97;48.64
9277;BME280;4676;42.678;23.244;2024-03-06T12:29:06;93823.00;;;13.83;50.96
9277;BME280;4676;42.678;23.244;2024-03-06T12:31:34;93820.00;;;13.90;50.10
9277;BME280;4676;42.678;23.244;2024-03-06T12:34:02;93815.09;;;13.87;50.41
9277;BME280;4676;42.678;23.244;2024-03-06T12:36:29;93813.94;;;13.93;48.76
9277;BME280;4676;42.678;23.244;2024-03-06T12:38:58;93814.22;;;14.02;49.23
9277;BME280;4676;42.678;23.244;2024-03-06T12:41:27;93808.25;;;14.18;49.55
9277;BME280;4676;42.678;23.244;2024-03-06T12:43:54;93806.47;;;14.34;50.25
9277;BME280;4676;42.678;23.244;2024-03-06T12:46:22;93789.91;;;14.11;48.97
9277;BME280;4676;42.678;23.244;2024-03-06T12:48:49;93810.47;;;14.38;49.34
9277;BME280;4676;42.678;23.244;2024-03-06T12:51:15;93822.41;;;14.08;58.69
9277;BME280;4676;42.678;23.244;2024-03-06T12:53:42;93815.56;;;13.94;63.41
9277;BME280;4676;42.678;23.244;2024-03-06T12:56:09;93819.50;;;13.40;67.68
9277;BME280;4676;42.678;23.244;2024-03-06T12:58:37;93796.38;;;12.97;72.00
9277;BME280;4676;42.678;23.244;2024-03-06T13:01:04;93814.88;;;12.99;73.59
9277;BME280;4676;42.678;23.244;2024-03-06T13:03:31;93816.13;;;12.92;73.88
9277;BME280;4676;42.678;23.244;2024-03-06T13:05:59;93834.66;;;12.79;75.02
9277;BME280;4676;42.678;23.244;2024-03-06T13:08:26;93832.72;;;12.51;74.72
9277;BME280;4676;42.678;23.244;2024-03-06T13:10:53;93829.91;;;12.40;74.71
9277;BME280;4676;42.678;23.244;2024-03-06T13:13:20;93826.28;;;12.28;76.00